This is the latest recevied weather packets stored in our database for station/object DJ3OW-13. If no packets are shown the sender has not sent any weather packets the latest 10 day(s).
| Time | Temp. | Humidity | Pressure | Rain* | Wind** | Luminosity | Snow |
|---|---|---|---|---|---|---|---|
| 1777834255 | 19.44° C | 46% | 1013.9 hPa | 0 mm | - | - | - |
| 1777829439 | 21.11° C | 38% | 1013.6 hPa | 0 mm | - | - | - |
| 1777828837 | 21.67° C | 37% | 1013.6 hPa | 0 mm | - | - | - |
| 1777823468 | 21.67° C | 46% | 1013.9 hPa | 0 mm | - | - | - |
| 1777822244 | 22.22° C | 45% | 1013.9 hPa | 0 mm | - | - | - |
| 1777821040 | 22.22° C | 42% | 1014 hPa | 0 mm | - | - | - |
| 1777816224 | 21.67° C | 43% | 1014.7 hPa | 0 mm | - | - | - |
| 1777815020 | 21.11° C | 47% | 1014.8 hPa | 0 mm | - | - | - |
| 1777813816 | 21.11° C | 49% | 1014.9 hPa | 0 mm | - | - | - |
| 1777812672 | 20.56° C | 51% | 1015.2 hPa | 0 mm | - | - | - |
| 1777812070 | 19.44° C | 52% | 1015.2 hPa | 0 mm | - | - | - |
| 1777811468 | 19.44° C | 55% | 1015.3 hPa | 0 mm | - | - | - |
| 1777807876 | 20° C | 46% | 1015.5 hPa | 0 mm | - | - | - |
| 1777797019 | 20° C | 52% | 1016.1 hPa | 0 mm | - | - | - |
| 1777793467 | 17.78° C | 59% | 1015.9 hPa | 0 mm | - | - | - |
| 1777792263 | 16.11° C | 65% | 1015.8 hPa | 0 mm | - | - | - |
| 1777789855 | 13.33° C | 74% | 1015.7 hPa | 0 mm | - | - | - |
| 1777789253 | 12.22° C | 77% | 1015.5 hPa | 0 mm | - | - | - |
| 1777780243 | 8.89° C | 88% | 1015.8 hPa | 0 mm | - | - | - |
| 1777779621 | 8.89° C | 87% | 1015.8 hPa | 0 mm | - | - | - |
| 1777777273 | 9.44° C | 87% | 1015.9 hPa | 0 mm | - | - | - |
| 1777774865 | 10° C | 84% | 1016 hPa | 0 mm | - | - | - |
| 1777766436 | 13.33° C | 72% | 1017.6 hPa | 0 mm | - | - | - |
| 1777765272 | 11.67° C | 80% | 1017.6 hPa | 0 mm | - | - | - |
| 1777760416 | 13.89° C | 72% | 1017.5 hPa | 0 mm | - | - | - |
* Rain latest hour (hover to see other rain measurements)
** Current wind speed in m/s (hover to see current wind gust speed)